createdAt,value
2022-09-18T00:01:31.187Z,8.80
2022-09-18T00:04:01.411Z,8.80
2022-09-18T00:06:32.256Z,8.80
2022-09-18T00:09:01.984Z,8.90
2022-09-18T00:11:35.735Z,8.90
2022-09-18T00:14:05.064Z,8.80
2022-09-18T00:16:33.343Z,8.90
2022-09-18T00:19:01.439Z,9.00
2022-09-18T00:21:31.815Z,8.80
2022-09-18T00:24:01.959Z,8.80
2022-09-18T00:26:33.323Z,8.80
2022-09-18T00:29:01.863Z,8.90
2022-09-18T00:31:31.915Z,8.90
2022-09-18T00:34:02.582Z,8.80
2022-09-18T00:36:31.263Z,8.80
2022-09-18T00:39:00.304Z,8.80
2022-09-18T00:41:30.852Z,8.90
2022-09-18T00:44:35.139Z,8.90
2022-09-18T00:47:14.363Z,8.90
2022-09-18T00:52:14.283Z,8.90
2022-09-18T00:54:44.287Z,9.00
2022-09-18T00:57:15.653Z,9.60
2022-09-18T00:59:47.494Z,9.10
2022-09-18T01:02:15.469Z,9.10
2022-09-18T01:04:43.445Z,9.10
2022-09-18T01:07:19.279Z,9.10
2022-09-18T01:09:55.178Z,11.20
2022-09-18T01:12:31.618Z,9.10
2022-09-18T01:15:06.547Z,9.40
2022-09-18T01:17:45.773Z,9.10
2022-09-18T01:20:41.560Z,8.00
2022-09-18T01:23:23.023Z,9.20
2022-09-18T01:26:04.273Z,9.20
2022-09-18T01:28:38.832Z,9.30
2022-09-18T01:31:11.793Z,9.30
2022-09-18T01:33:44.703Z,9.50
2022-09-18T01:36:17.611Z,9.50
2022-09-18T01:38:50.175Z,9.70
2022-09-18T01:41:21.716Z,9.70
2022-09-18T01:43:54.721Z,9.80
2022-09-18T01:46:25.214Z,10.40
2022-09-18T01:48:58.061Z,10.40
2022-09-18T01:51:30.732Z,9.90
2022-09-18T01:54:01.692Z,9.90
2022-09-18T01:56:34.595Z,9.90
2022-09-18T01:59:08.728Z,9.90
2022-09-18T02:01:38.934Z,9.90
2022-09-18T02:04:12.610Z,9.90
2022-09-18T02:06:45.708Z,10.00
2022-09-18T02:09:14.250Z,9.90
2022-09-18T02:11:46.698Z,9.80
2022-09-18T02:14:22.582Z,10.00
2022-09-18T02:16:53.711Z,10.10
2022-09-18T02:19:26.762Z,10.20
2022-09-18T02:21:57.915Z,10.10
2022-09-18T02:24:33.652Z,10.20
2022-09-18T02:27:02.362Z,10.10
2022-09-18T02:29:32.457Z,10.10
2022-09-18T02:32:01.212Z,10.00
2022-09-18T02:34:30.086Z,10.00
2022-09-18T02:37:09.862Z,10.00
2022-09-18T02:42:25.446Z,10.00
2022-09-18T02:45:02.200Z,10.00
2022-09-18T02:47:44.075Z,10.00
2022-09-18T02:50:18.784Z,9.90
2022-09-18T02:52:53.288Z,9.90
2022-09-18T02:55:26.984Z,9.90
2022-09-18T02:58:00.427Z,9.80
2022-09-18T03:00:31.919Z,9.80
2022-09-18T03:03:00.355Z,10.50
2022-09-18T03:05:28.631Z,9.70
2022-09-18T03:07:56.536Z,9.70
2022-09-18T03:10:24.474Z,9.60
2022-09-18T03:12:52.358Z,9.70
2022-09-18T03:15:20.278Z,9.60
2022-09-18T03:17:49.644Z,10.50
2022-09-18T03:20:17.681Z,9.40
2022-09-18T03:22:45.596Z,9.40
2022-09-18T03:25:14.384Z,9.40
2022-09-18T03:27:42.664Z,9.40
2022-09-18T03:30:11.660Z,9.10
2022-09-18T03:32:39.838Z,9.30
2022-09-18T03:35:10.084Z,9.20
2022-09-18T03:37:38.192Z,9.20
2022-09-18T03:40:07.179Z,9.20
2022-09-18T03:42:35.686Z,9.20
2022-09-18T03:47:35.653Z,9.20
2022-09-18T03:50:04.547Z,9.10
2022-09-18T03:52:33.846Z,9.20
2022-09-18T03:55:01.767Z,9.20
2022-09-18T03:57:29.654Z,9.20
2022-09-18T03:59:57.547Z,9.40
2022-09-18T04:02:25.472Z,9.20
2022-09-18T04:04:53.881Z,9.00
2022-09-18T04:07:21.866Z,9.20
2022-09-18T04:09:53.188Z,9.40
2022-09-18T04:12:21.440Z,9.20
2022-09-18T04:14:49.337Z,9.70
2022-09-18T04:19:46.675Z,9.30
2022-09-18T04:24:46.636Z,9.40
2022-09-18T04:27:15.926Z,9.40
2022-09-18T04:29:43.900Z,10.00
2022-09-18T04:32:11.803Z,9.40
2022-09-18T04:34:39.698Z,10.00
2022-09-18T04:37:10.320Z,9.50
2022-09-18T04:39:38.537Z,9.50
2022-09-18T04:42:06.874Z,9.50
2022-09-18T04:44:36.109Z,9.50
2022-09-18T04:49:32.274Z,9.60
2022-09-18T04:52:00.242Z,9.60
2022-09-18T04:54:28.131Z,9.60
2022-09-18T04:56:56.674Z,9.50
2022-09-18T04:59:24.587Z,9.50
2022-09-18T05:01:53.899Z,9.60
2022-09-18T05:04:21.821Z,9.60
2022-09-18T05:06:49.693Z,10.20
2022-09-18T05:09:17.607Z,9.60
2022-09-18T05:11:45.485Z,9.60
2022-09-18T05:14:13.551Z,9.60
2022-09-18T05:19:10.975Z,9.60
2022-09-18T05:21:38.875Z,9.70
2022-09-18T05:24:06.931Z,9.60
2022-09-18T05:26:35.230Z,9.70
2022-09-18T05:31:31.365Z,9.70
2022-09-18T05:33:59.274Z,9.70
2022-09-18T05:36:28.567Z,9.70
2022-09-18T05:38:56.469Z,9.60
2022-09-18T05:41:24.361Z,9.50
2022-09-18T05:43:52.262Z,9.50
2022-09-18T05:46:20.342Z,9.50
2022-09-18T05:48:49.892Z,9.60
2022-09-18T05:51:17.967Z,9.60
2022-09-18T05:53:48.429Z,9.60
2022-09-18T05:56:16.939Z,9.60
2022-09-18T05:58:44.876Z,9.50
2022-09-18T06:03:42.461Z,9.70
2022-09-18T06:06:10.343Z,9.80
2022-09-18T06:11:08.070Z,9.70
2022-09-18T06:13:35.980Z,9.70
2022-09-18T06:16:04.283Z,9.70
2022-09-18T06:18:32.188Z,9.80
2022-09-18T06:21:00.469Z,9.90
2022-09-18T06:23:29.520Z,9.90
2022-09-18T06:25:59.173Z,9.90
2022-09-18T06:28:30.706Z,9.90
2022-09-18T06:30:59.216Z,10.00
2022-09-18T06:33:29.238Z,10.00
2022-09-18T06:35:57.179Z,9.90
2022-09-18T06:38:25.053Z,10.00
2022-09-18T06:40:54.478Z,10.10
2022-09-18T06:43:22.577Z,10.10
2022-09-18T06:45:55.781Z,10.20
2022-09-18T06:55:49.823Z,10.50
2022-09-18T06:58:18.513Z,10.50
2022-09-18T07:00:47.573Z,10.50
2022-09-18T07:03:16.841Z,10.50
2022-09-18T07:05:46.054Z,10.50
2022-09-18T07:08:14.575Z,10.80
2022-09-18T07:13:10.824Z,10.70
2022-09-18T07:15:38.738Z,10.80
2022-09-18T07:18:08.123Z,10.80
2022-09-18T07:20:37.378Z,10.60
2022-09-18T07:23:05.320Z,10.60
2022-09-18T07:25:34.527Z,10.50
2022-09-18T07:28:07.827Z,10.50
2022-09-18T07:30:35.891Z,10.60
2022-09-18T07:33:05.046Z,10.70
2022-09-18T07:35:33.650Z,10.60
2022-09-18T07:38:05.818Z,10.70
2022-09-18T07:40:34.317Z,10.80
2022-09-18T07:43:03.205Z,10.80
2022-09-18T07:45:31.215Z,10.70
2022-09-18T07:48:01.825Z,10.60
2022-09-18T07:50:29.980Z,10.60
2022-09-18T07:52:59.602Z,10.60
2022-09-18T07:55:29.245Z,10.60
2022-09-18T07:57:59.042Z,11.40
2022-09-18T08:00:28.583Z,10.70
2022-09-18T08:03:03.189Z,10.70
2022-09-18T08:05:31.704Z,10.70
2022-09-18T08:08:04.237Z,11.20
2022-09-18T08:10:34.660Z,11.00
2022-09-18T08:13:03.640Z,11.00
2022-09-18T08:15:31.779Z,11.00
2022-09-18T08:17:59.831Z,10.30
2022-09-18T08:20:27.975Z,11.00
2022-09-18T08:22:55.921Z,11.00
2022-09-18T08:25:24.360Z,11.10
2022-09-18T08:27:53.778Z,11.10
2022-09-18T08:30:21.736Z,11.10
2022-09-18T08:32:49.630Z,11.00
2022-09-18T08:35:17.694Z,11.10
2022-09-18T08:37:48.819Z,11.10
2022-09-18T08:40:18.964Z,11.30
2022-09-18T08:43:00.013Z,11.30
2022-09-18T08:45:40.076Z,11.40
2022-09-18T08:48:12.854Z,11.10
2022-09-18T08:50:43.875Z,11.40
2022-09-18T08:53:18.839Z,11.30
2022-09-18T08:55:49.762Z,11.50
2022-09-18T08:58:23.604Z,11.70
2022-09-18T09:00:54.059Z,11.90
2022-09-18T09:03:30.006Z,11.60
2022-09-18T09:06:01.063Z,11.40
2022-09-18T09:08:48.547Z,12.00
2022-09-18T09:11:23.150Z,12.00
2022-09-18T09:14:13.927Z,12.00
2022-09-18T09:16:44.804Z,11.90
2022-09-18T09:19:27.848Z,12.00
2022-09-18T09:22:04.243Z,12.00
2022-09-18T09:24:35.602Z,12.00
2022-09-18T09:27:15.773Z,12.00
2022-09-18T09:29:47.259Z,11.90
2022-09-18T09:32:22.004Z,11.90
2022-09-18T09:34:55.541Z,11.90
2022-09-18T09:37:33.153Z,11.90
2022-09-18T09:40:08.103Z,12.30
2022-09-18T09:42:42.141Z,12.30
2022-09-18T09:45:17.365Z,12.30
2022-09-18T09:47:51.575Z,12.40
2022-09-18T09:50:35.490Z,12.60
2022-09-18T09:53:07.144Z,12.60
2022-09-18T09:55:43.389Z,12.60
2022-09-18T09:58:17.025Z,12.30
2022-09-18T10:00:51.821Z,12.80
2022-09-18T10:03:40.329Z,12.80
2022-09-18T10:06:17.235Z,12.90
2022-09-18T10:08:49.477Z,12.90
2022-09-18T10:11:18.265Z,13.00
2022-09-18T10:13:51.493Z,13.20
2022-09-18T10:16:24.770Z,13.30
2022-09-18T10:18:52.890Z,14.40
2022-09-18T10:21:22.346Z,13.20
2022-09-18T10:23:55.768Z,13.30
2022-09-18T10:26:27.817Z,13.40
2022-09-18T10:28:55.695Z,13.40
2022-09-18T10:31:27.342Z,13.40
2022-09-18T10:33:56.231Z,13.50
2022-09-18T10:36:30.386Z,13.60
2022-09-18T10:38:59.723Z,13.80
2022-09-18T10:41:35.301Z,13.80
2022-09-18T10:44:22.335Z,13.80
2022-09-18T10:46:58.495Z,13.70
2022-09-18T10:49:30.516Z,13.60
2022-09-18T10:52:29.870Z,14.20
2022-09-18T10:55:17.068Z,13.50
2022-09-18T10:57:46.788Z,13.40
2022-09-18T11:00:37.479Z,13.90
2022-09-18T11:03:35.435Z,13.90
2022-09-18T11:06:05.899Z,14.00
2022-09-18T11:08:37.065Z,14.20
2022-09-18T11:11:09.123Z,14.20
2022-09-18T11:13:44.789Z,14.10
2022-09-18T11:16:22.150Z,14.00
2022-09-18T11:19:07.060Z,14.20
2022-09-18T11:21:46.111Z,13.10
2022-09-18T11:24:21.743Z,14.00
2022-09-18T11:26:54.218Z,14.10
2022-09-18T11:29:32.072Z,14.10
2022-09-18T11:32:05.723Z,14.30
2022-09-18T11:34:38.941Z,14.30
2022-09-18T11:37:09.909Z,14.50
2022-09-18T11:39:40.807Z,14.70
2022-09-18T11:42:11.264Z,14.50
2022-09-18T11:44:40.280Z,14.70
2022-09-18T11:47:30.596Z,14.70
2022-09-18T11:50:05.516Z,14.70
2022-09-18T11:52:38.723Z,14.80
2022-09-18T11:55:15.113Z,14.90
2022-09-18T11:57:46.923Z,15.30
2022-09-18T12:00:18.697Z,15.50
2022-09-18T12:02:57.506Z,15.50
2022-09-18T12:05:30.343Z,15.40
2022-09-18T12:08:04.367Z,15.40
2022-09-18T12:10:46.370Z,15.70
2022-09-18T12:13:33.067Z,15.80
2022-09-18T12:16:09.819Z,15.80
2022-09-18T12:18:46.469Z,15.80
2022-09-18T12:21:19.503Z,15.40
2022-09-18T12:23:47.426Z,15.20
2022-09-18T12:26:20.939Z,15.20
2022-09-18T12:29:05.554Z,15.10
2022-09-18T12:31:41.632Z,15.00
2022-09-18T12:34:16.749Z,14.70
2022-09-18T12:36:59.029Z,14.50
2022-09-18T12:39:50.499Z,14.40
2022-09-18T12:42:26.227Z,14.30
2022-09-18T12:45:24.649Z,14.40
2022-09-18T12:48:09.349Z,14.40
2022-09-18T12:50:51.014Z,14.40
2022-09-18T12:53:36.090Z,14.10
2022-09-18T12:56:16.941Z,14.70
2022-09-18T12:59:04.833Z,14.30
2022-09-18T13:01:36.219Z,14.30
2022-09-18T13:04:09.462Z,14.30
2022-09-18T13:06:42.470Z,14.60
2022-09-18T13:09:23.828Z,15.00
2022-09-18T13:11:56.371Z,15.00
2022-09-18T13:14:29.233Z,14.90
2022-09-18T13:17:03.933Z,15.60
2022-09-18T13:19:35.226Z,15.20
2022-09-18T13:22:06.733Z,15.30
2022-09-18T13:24:37.475Z,15.40
2022-09-18T13:27:11.266Z,15.40
2022-09-18T13:32:20.065Z,15.80
2022-09-18T13:34:52.583Z,15.80
2022-09-18T13:37:23.201Z,15.40
2022-09-18T13:40:09.640Z,15.30
2022-09-18T13:42:40.982Z,15.20
2022-09-18T13:45:19.754Z,15.00
2022-09-18T13:48:04.749Z,15.00
2022-09-18T13:50:33.727Z,15.10
2022-09-18T13:53:03.993Z,15.20
2022-09-18T13:55:38.955Z,14.80
2022-09-18T13:58:52.528Z,14.80
2022-09-18T14:01:56.976Z,14.60
2022-09-18T14:05:08.058Z,14.40
2022-09-18T14:07:54.448Z,14.40
2022-09-18T14:10:35.255Z,14.20
2022-09-18T14:13:22.519Z,14.20
2022-09-18T14:16:00.711Z,14.40
2022-09-18T14:18:31.271Z,14.30
2022-09-18T14:21:19.675Z,14.30
2022-09-18T14:24:23.300Z,14.70
2022-09-18T14:27:03.460Z,14.60
2022-09-18T14:29:34.760Z,14.50
2022-09-18T14:32:04.184Z,14.60
2022-09-18T14:34:39.075Z,14.50
2022-09-18T14:37:26.774Z,14.50
2022-09-18T14:39:56.001Z,14.60
2022-09-18T14:42:33.223Z,14.30
2022-09-18T14:45:19.162Z,14.30
2022-09-18T14:47:49.928Z,14.40
2022-09-18T14:50:27.208Z,14.50
2022-09-18T14:52:56.143Z,14.50
2022-09-18T14:55:27.428Z,14.50
2022-09-18T14:57:57.566Z,14.80
2022-09-18T15:00:29.948Z,15.00
2022-09-18T15:03:01.052Z,15.00
2022-09-18T15:05:29.694Z,15.00
2022-09-18T15:08:02.024Z,15.50
2022-09-18T15:10:30.772Z,15.00
2022-09-18T15:12:59.648Z,15.00
2022-09-18T15:15:33.000Z,14.90
2022-09-18T15:18:01.455Z,14.80
2022-09-18T15:20:30.858Z,14.60
2022-09-18T15:22:58.814Z,14.40
2022-09-18T15:25:30.076Z,14.50
2022-09-18T15:28:02.262Z,14.30
2022-09-18T15:30:32.047Z,14.20
2022-09-18T15:33:02.196Z,14.20
2022-09-18T15:35:33.239Z,14.00
2022-09-18T15:38:03.846Z,14.10
2022-09-18T15:40:34.745Z,13.50
2022-09-18T15:43:04.650Z,13.90
2022-09-18T15:45:36.056Z,14.50
2022-09-18T15:48:38.846Z,13.60
2022-09-18T15:51:13.558Z,13.90
2022-09-18T15:53:41.599Z,14.00
2022-09-18T15:56:20.816Z,14.00
2022-09-18T15:58:54.902Z,14.10
2022-09-18T16:01:28.811Z,14.10
2022-09-18T16:04:04.491Z,14.00
2022-09-18T16:06:42.516Z,13.90
2022-09-18T16:09:24.359Z,13.90
2022-09-18T16:11:52.755Z,13.90
2022-09-18T16:14:40.843Z,13.60
2022-09-18T16:17:46.344Z,13.80
2022-09-18T16:20:35.322Z,13.80
2022-09-18T16:23:19.647Z,13.50
2022-09-18T16:26:01.822Z,13.90
2022-09-18T16:28:33.409Z,13.80
2022-09-18T16:31:01.791Z,13.80
2022-09-18T16:33:31.319Z,13.80
2022-09-18T16:36:05.901Z,13.80
2022-09-18T16:38:33.784Z,13.80
2022-09-18T16:41:01.682Z,13.80
2022-09-18T16:43:29.963Z,13.50
2022-09-18T16:45:57.817Z,13.50
2022-09-18T16:48:26.065Z,13.40
2022-09-18T16:50:53.967Z,13.50
2022-09-18T16:53:23.233Z,13.90
2022-09-18T16:55:54.410Z,13.40
2022-09-18T16:58:23.626Z,13.50
2022-09-18T17:00:51.968Z,13.50
2022-09-18T17:03:20.136Z,13.90
2022-09-18T17:05:48.085Z,13.50
2022-09-18T17:08:15.992Z,13.50
2022-09-18T17:10:45.485Z,13.60
2022-09-18T17:13:14.060Z,13.80
2022-09-18T17:15:42.056Z,13.50
2022-09-18T17:18:10.383Z,13.70
2022-09-18T17:20:38.507Z,13.30
2022-09-18T17:23:07.002Z,13.60
2022-09-18T17:25:37.023Z,13.20
2022-09-18T17:28:06.433Z,13.20
2022-09-18T17:30:34.354Z,13.10
2022-09-18T17:33:02.677Z,13.40
2022-09-18T17:35:30.616Z,12.70
2022-09-18T17:37:58.515Z,12.90
2022-09-18T17:40:26.516Z,13.00
2022-09-18T17:42:54.444Z,13.10
2022-09-18T17:45:23.651Z,12.70
2022-09-18T17:47:52.940Z,13.30
2022-09-18T17:50:21.975Z,13.10
2022-09-18T17:52:49.904Z,13.40
2022-09-18T17:55:18.479Z,13.00
2022-09-18T17:57:46.410Z,13.10
2022-09-18T18:00:15.714Z,13.20
2022-09-18T18:02:44.954Z,13.10
2022-09-18T18:07:41.063Z,13.20
2022-09-18T18:10:09.854Z,13.10
2022-09-18T18:12:37.785Z,13.20
2022-09-18T18:15:06.991Z,13.10
2022-09-18T18:17:35.935Z,13.20
2022-09-18T18:20:05.798Z,13.10
2022-09-18T18:22:33.695Z,13.20
2022-09-18T18:25:01.614Z,13.30
2022-09-18T18:27:29.519Z,12.90
2022-09-18T18:29:57.396Z,13.10
2022-09-18T18:32:25.341Z,12.80
2022-09-18T18:34:54.213Z,13.10
2022-09-18T18:37:23.537Z,13.10
2022-09-18T18:39:51.413Z,13.10
2022-09-18T18:42:19.316Z,13.10
2022-09-18T18:47:17.503Z,13.10
2022-09-18T18:49:45.399Z,12.70
2022-09-18T18:52:13.378Z,12.80
2022-09-18T18:54:42.722Z,12.80
2022-09-18T18:57:10.924Z,12.70
2022-09-18T18:59:38.834Z,13.70
2022-09-18T19:02:07.092Z,12.50
2022-09-18T19:04:36.290Z,12.80
2022-09-18T19:07:04.198Z,12.90
2022-09-18T19:09:32.376Z,12.70
2022-09-18T19:12:01.865Z,12.90
2022-09-18T19:14:33.396Z,12.70
2022-09-18T19:17:01.814Z,12.90
2022-09-18T19:19:29.856Z,13.70
2022-09-18T19:21:59.712Z,13.00
2022-09-18T19:24:27.961Z,13.00
2022-09-18T19:26:55.975Z,13.00
2022-09-18T19:29:25.240Z,14.00
2022-09-18T19:31:53.289Z,13.00
2022-09-18T19:34:22.407Z,13.00
2022-09-18T19:36:51.807Z,13.50
2022-09-18T19:39:23.837Z,12.60
2022-09-18T19:41:56.219Z,12.80
2022-09-18T19:44:31.174Z,12.60
2022-09-18T19:47:02.119Z,12.70
2022-09-18T19:49:33.060Z,12.90
2022-09-18T19:52:02.005Z,12.80
2022-09-18T19:54:30.944Z,12.90
2022-09-18T19:56:59.091Z,12.80
2022-09-18T19:59:28.724Z,12.70
2022-09-18T20:01:57.095Z,12.80
2022-09-18T20:04:25.228Z,12.50
2022-09-18T20:06:53.155Z,13.30
2022-09-18T20:09:21.341Z,12.60
2022-09-18T20:11:49.242Z,12.70
2022-09-18T20:14:17.295Z,13.50
2022-09-18T20:16:46.549Z,13.10
2022-09-18T20:19:14.597Z,12.60
2022-09-18T20:21:42.803Z,12.70
2022-09-18T20:24:10.720Z,12.50
2022-09-18T20:26:38.731Z,12.40
2022-09-18T20:29:06.638Z,12.70
2022-09-18T20:34:05.725Z,12.60
2022-09-18T20:36:33.913Z,12.60
2022-09-18T20:39:02.355Z,12.40
2022-09-18T20:41:30.803Z,12.70
2022-09-18T20:43:59.890Z,12.40
2022-09-18T20:46:28.008Z,12.80
2022-09-18T20:48:56.044Z,12.50
2022-09-18T20:51:27.129Z,12.60
2022-09-18T20:53:57.131Z,12.40
2022-09-18T20:56:26.801Z,12.40
2022-09-18T20:58:55.083Z,12.60
2022-09-18T21:01:24.820Z,12.30
2022-09-18T21:03:56.630Z,12.40
2022-09-18T21:06:27.194Z,11.90
2022-09-18T21:08:56.074Z,12.00
2022-09-18T21:11:25.855Z,11.90
2022-09-18T21:13:55.749Z,11.90
2022-09-18T21:16:25.825Z,12.00
2022-09-18T21:18:56.678Z,11.90
2022-09-18T21:21:28.119Z,11.70
2022-09-18T21:24:01.784Z,11.70
2022-09-18T21:26:33.012Z,12.40
2022-09-18T21:29:02.111Z,11.40
2022-09-18T21:31:31.106Z,11.50
2022-09-18T21:34:00.224Z,12.10
2022-09-18T21:36:33.520Z,12.70
2022-09-18T21:39:01.788Z,11.50
2022-09-18T21:41:29.673Z,11.50
2022-09-18T21:43:59.538Z,11.50
2022-09-18T21:46:27.471Z,12.20
2022-09-18T21:48:56.409Z,11.40
2022-09-18T21:51:24.335Z,11.30
2022-09-18T21:56:21.878Z,11.30
2022-09-18T21:58:50.333Z,11.20
2022-09-18T22:01:20.293Z,11.30
2022-09-18T22:03:52.206Z,11.20
2022-09-18T22:06:21.833Z,12.00
2022-09-18T22:08:52.380Z,11.40
2022-09-18T22:11:24.568Z,11.30
2022-09-18T22:13:52.919Z,11.70
2022-09-18T22:16:21.131Z,11.60
2022-09-18T22:18:49.328Z,11.80
2022-09-18T22:21:22.810Z,11.40
2022-09-18T22:23:52.178Z,11.40
2022-09-18T22:26:22.463Z,11.50
2022-09-18T22:28:50.950Z,11.40
2022-09-18T22:31:18.952Z,11.40
2022-09-18T22:33:47.258Z,11.70
2022-09-18T22:36:15.744Z,12.20
2022-09-18T22:38:43.701Z,12.00
2022-09-18T22:41:11.744Z,11.30
2022-09-18T22:43:41.316Z,11.40
2022-09-18T22:46:11.682Z,11.50
2022-09-18T22:48:40.353Z,12.10
2022-09-18T22:51:09.908Z,11.10
2022-09-18T22:53:41.115Z,11.10
2022-09-18T22:56:13.486Z,11.10
2022-09-18T22:58:43.736Z,11.20
2022-09-18T23:01:13.860Z,10.80
2022-09-18T23:03:42.502Z,11.00
2022-09-18T23:06:10.523Z,10.80
2022-09-18T23:08:38.908Z,11.10
2022-09-18T23:11:10.627Z,10.80
2022-09-18T23:13:39.519Z,11.00
2022-09-18T23:16:10.929Z,10.90
2022-09-18T23:18:39.107Z,10.90
2022-09-18T23:21:09.327Z,10.90
2022-09-18T23:23:39.037Z,10.80
2022-09-18T23:26:09.413Z,10.80
2022-09-18T23:28:38.673Z,10.80
2022-09-18T23:31:10.725Z,10.70
2022-09-18T23:33:39.549Z,10.60
2022-09-18T23:36:09.783Z,10.50
2022-09-18T23:38:38.426Z,10.20
2022-09-18T23:41:08.790Z,10.70
2022-09-18T23:43:37.144Z,11.40
2022-09-18T23:46:05.923Z,10.30
2022-09-18T23:48:35.172Z,10.10
2022-09-18T23:51:03.914Z,9.70
2022-09-18T23:53:37.968Z,9.60
2022-09-18T23:56:08.804Z,10.10
2022-09-18T23:58:37.709Z,9.40
